sensor_id;sensor_type;location;lat;lon;timestamp;pressure;altitude;pressure_sealevel;temperature;humidity
34506;BME280;20748;42.632;23.198;2022-12-07T00:00:07;91917.34;;;7.28;100.00
34506;BME280;20748;42.632;23.198;2022-12-07T00:02:40;91919.56;;;7.35;100.00
34506;BME280;20748;42.632;23.198;2022-12-07T00:05:13;91920.13;;;7.32;100.00
34506;BME280;20748;42.632;23.198;2022-12-07T00:07:45;91920.34;;;7.35;100.00
34506;BME280;20748;42.632;23.198;2022-12-07T00:10:18;91914.53;;;7.24;100.00
34506;BME280;20748;42.632;23.198;2022-12-07T00:12:51;91917.81;;;7.30;100.00
34506;BME280;20748;42.632;23.198;2022-12-07T00:15:23;91907.38;;;7.35;100.00
34506;BME280;20748;42.632;23.198;2022-12-07T00:17:56;91904.78;;;7.35;100.00
34506;BME280;20748;42.632;23.198;2022-12-07T00:20:28;91905.25;;;7.18;100.00
34506;BME280;20748;42.632;23.198;2022-12-07T00:23:00;91913.69;;;7.29;100.00
34506;BME280;20748;42.632;23.198;2022-12-07T00:25:33;91905.75;;;7.20;100.00
34506;BME280;20748;42.632;23.198;2022-12-07T00:28:06;91908.22;;;7.31;100.00
34506;BME280;20748;42.632;23.198;2022-12-07T00:30:41;91905.56;;;7.36;100.00
34506;BME280;20748;42.632;23.198;2022-12-07T00:33:13;91903.63;;;7.22;100.00
34506;BME280;20748;42.632;23.198;2022-12-07T00:35:45;91909.97;;;7.35;100.00
34506;BME280;20748;42.632;23.198;2022-12-07T00:38:18;91899.59;;;7.35;100.00
34506;BME280;20748;42.632;23.198;2022-12-07T00:40:55;91897.31;;;7.29;100.00
34506;BME280;20748;42.632;23.198;2022-12-07T00:43:28;91892.59;;;7.36;100.00
34506;BME280;20748;42.632;23.198;2022-12-07T00:46:01;91893.53;;;7.40;100.00
34506;BME280;20748;42.632;23.198;2022-12-07T00:48:34;91890.59;;;7.28;100.00
34506;BME280;20748;42.632;23.198;2022-12-07T00:51:07;91892.28;;;7.18;100.00
34506;BME280;20748;42.632;23.198;2022-12-07T00:53:40;91898.28;;;7.14;100.00
34506;BME280;20748;42.632;23.198;2022-12-07T00:56:16;91893.47;;;7.07;100.00
34506;BME280;20748;42.632;23.198;2022-12-07T00:58:53;91902.56;;;7.04;100.00
34506;BME280;20748;42.632;23.198;2022-12-07T01:01:28;91902.63;;;6.99;100.00
34506;BME280;20748;42.632;23.198;2022-12-07T01:04:01;91900.94;;;7.08;100.00
34506;BME280;20748;42.632;23.198;2022-12-07T01:06:34;91894.56;;;7.01;100.00
34506;BME280;20748;42.632;23.198;2022-12-07T01:09:06;91898.50;;;6.98;100.00
34506;BME280;20748;42.632;23.198;2022-12-07T01:11:39;91903.56;;;6.84;100.00
34506;BME280;20748;42.632;23.198;2022-12-07T01:14:12;91888.44;;;6.67;100.00
34506;BME280;20748;42.632;23.198;2022-12-07T01:16:44;91901.28;;;6.53;100.00
34506;BME280;20748;42.632;23.198;2022-12-07T01:19:17;91893.59;;;6.48;100.00
34506;BME280;20748;42.632;23.198;2022-12-07T01:21:49;91890.34;;;6.61;100.00
34506;BME280;20748;42.632;23.198;2022-12-07T01:24:22;91894.00;;;6.79;100.00
34506;BME280;20748;42.632;23.198;2022-12-07T01:26:54;91886.38;;;6.88;100.00
34506;BME280;20748;42.632;23.198;2022-12-07T01:29:27;91885.38;;;6.89;100.00
34506;BME280;20748;42.632;23.198;2022-12-07T01:31:59;91877.59;;;6.89;100.00
34506;BME280;20748;42.632;23.198;2022-12-07T01:34:32;91884.03;;;6.92;100.00
34506;BME280;20748;42.632;23.198;2022-12-07T01:37:04;91870.97;;;6.97;100.00
34506;BME280;20748;42.632;23.198;2022-12-07T01:39:37;91876.53;;;6.90;100.00
34506;BME280;20748;42.632;23.198;2022-12-07T01:42:09;91867.00;;;6.85;100.00
34506;BME280;20748;42.632;23.198;2022-12-07T01:48:10;91866.22;;;6.61;100.00
34506;BME280;20748;42.632;23.198;2022-12-07T01:50:45;91863.25;;;6.72;100.00
34506;BME280;20748;42.632;23.198;2022-12-07T01:53:21;91859.59;;;6.74;100.00
34506;BME280;20748;42.632;23.198;2022-12-07T01:55:57;91851.16;;;6.63;100.00
34506;BME280;20748;42.632;23.198;2022-12-07T01:58:31;91853.16;;;6.71;100.00
34506;BME280;20748;42.632;23.198;2022-12-07T02:01:04;91849.56;;;6.67;100.00
34506;BME280;20748;42.632;23.198;2022-12-07T02:03:39;91861.91;;;6.51;100.00
34506;BME280;20748;42.632;23.198;2022-12-07T02:06:14;91858.16;;;6.38;100.00
34506;BME280;20748;42.632;23.198;2022-12-07T02:08:48;91864.28;;;5.88;100.00
34506;BME280;20748;42.632;23.198;2022-12-07T02:11:21;91856.91;;;5.71;100.00
34506;BME280;20748;42.632;23.198;2022-12-07T02:13:54;91859.63;;;5.85;100.00
34506;BME280;20748;42.632;23.198;2022-12-07T02:16:31;91850.81;;;5.91;100.00
34506;BME280;20748;42.632;23.198;2022-12-07T02:19:55;91847.78;;;6.13;100.00
34506;BME280;20748;42.632;23.198;2022-12-07T02:22:52;91851.53;;;6.26;100.00
34506;BME280;20748;42.632;23.198;2022-12-07T02:25:48;91849.72;;;6.27;100.00
34506;BME280;20748;42.632;23.198;2022-12-07T02:28:29;91849.19;;;6.30;100.00
34506;BME280;20748;42.632;23.198;2022-12-07T02:31:09;91852.91;;;6.43;100.00
34506;BME280;20748;42.632;23.198;2022-12-07T02:33:44;91852.34;;;6.51;100.00
34506;BME280;20748;42.632;23.198;2022-12-07T02:36:23;91850.28;;;6.48;100.00
34506;BME280;20748;42.632;23.198;2022-12-07T02:39:00;91852.22;;;6.37;100.00
34506;BME280;20748;42.632;23.198;2022-12-07T02:41:38;91854.03;;;6.37;100.00
34506;BME280;20748;42.632;23.198;2022-12-07T02:44:15;91855.28;;;6.39;100.00
34506;BME280;20748;42.632;23.198;2022-12-07T02:46:53;91839.44;;;6.46;100.00
34506;BME280;20748;42.632;23.198;2022-12-07T02:49:27;91822.59;;;6.43;100.00
34506;BME280;20748;42.632;23.198;2022-12-07T02:52:00;91831.91;;;6.44;100.00
34506;BME280;20748;42.632;23.198;2022-12-07T02:54:33;91823.25;;;6.54;100.00
34506;BME280;20748;42.632;23.198;2022-12-07T02:57:21;91824.47;;;6.38;100.00
34506;BME280;20748;42.632;23.198;2022-12-07T03:00:03;91822.13;;;6.41;100.00
34506;BME280;20748;42.632;23.198;2022-12-07T03:02:46;91815.66;;;6.39;100.00
34506;BME280;20748;42.632;23.198;2022-12-07T03:05:32;91813.94;;;6.29;100.00
34506;BME280;20748;42.632;23.198;2022-12-07T03:08:13;91812.78;;;6.40;100.00
34506;BME280;20748;42.632;23.198;2022-12-07T03:10:55;91809.97;;;6.37;100.00
34506;BME280;20748;42.632;23.198;2022-12-07T03:13:30;91801.94;;;6.38;100.00
34506;BME280;20748;42.632;23.198;2022-12-07T03:16:10;91806.78;;;6.21;100.00
34506;BME280;20748;42.632;23.198;2022-12-07T03:18:50;91817.03;;;6.31;100.00
34506;BME280;20748;42.632;23.198;2022-12-07T03:21:27;91814.50;;;6.26;100.00
34506;BME280;20748;42.632;23.198;2022-12-07T03:24:05;91820.41;;;6.02;100.00
34506;BME280;20748;42.632;23.198;2022-12-07T03:26:44;91815.53;;;5.95;100.00
34506;BME280;20748;42.632;23.198;2022-12-07T03:29:23;91821.94;;;5.73;100.00
34506;BME280;20748;42.632;23.198;2022-12-07T03:32:02;91827.72;;;5.60;100.00
34506;BME280;20748;42.632;23.198;2022-12-07T03:34:41;91825.75;;;5.46;100.00
34506;BME280;20748;42.632;23.198;2022-12-07T03:37:18;91829.91;;;5.47;100.00
34506;BME280;20748;42.632;23.198;2022-12-07T03:40:02;91828.44;;;5.31;100.00
34506;BME280;20748;42.632;23.198;2022-12-07T03:42:37;91830.22;;;4.90;100.00
34506;BME280;20748;42.632;23.198;2022-12-07T03:45:10;91827.72;;;4.80;100.00
34506;BME280;20748;42.632;23.198;2022-12-07T03:47:47;91828.47;;;4.80;100.00
34506;BME280;20748;42.632;23.198;2022-12-07T03:50:27;91825.09;;;4.85;100.00
34506;BME280;20748;42.632;23.198;2022-12-07T03:53:04;91819.09;;;4.39;100.00
34506;BME280;20748;42.632;23.198;2022-12-07T03:55:43;91809.09;;;4.17;100.00
34506;BME280;20748;42.632;23.198;2022-12-07T03:58:18;91824.56;;;4.17;100.00
34506;BME280;20748;42.632;23.198;2022-12-07T04:00:51;91817.84;;;4.21;100.00
34506;BME280;20748;42.632;23.198;2022-12-07T04:03:24;91819.91;;;4.14;100.00
34506;BME280;20748;42.632;23.198;2022-12-07T04:05:57;91813.94;;;4.29;100.00
34506;BME280;20748;42.632;23.198;2022-12-07T04:08:30;91815.19;;;4.47;100.00
34506;BME280;20748;42.632;23.198;2022-12-07T04:11:02;91808.50;;;4.41;100.00
34506;BME280;20748;42.632;23.198;2022-12-07T04:13:35;91820.66;;;4.25;100.00
34506;BME280;20748;42.632;23.198;2022-12-07T04:16:27;91819.13;;;4.24;100.00
34506;BME280;20748;42.632;23.198;2022-12-07T04:19:00;91812.19;;;4.14;100.00
34506;BME280;20748;42.632;23.198;2022-12-07T04:21:33;91813.47;;;4.16;100.00
34506;BME280;20748;42.632;23.198;2022-12-07T04:24:05;91813.69;;;4.25;100.00
34506;BME280;20748;42.632;23.198;2022-12-07T04:26:38;91824.25;;;4.39;100.00
34506;BME280;20748;42.632;23.198;2022-12-07T04:29:10;91803.84;;;4.38;100.00
34506;BME280;20748;42.632;23.198;2022-12-07T04:31:43;91821.81;;;4.64;100.00
34506;BME280;20748;42.632;23.198;2022-12-07T04:34:17;91819.16;;;4.79;100.00
34506;BME280;20748;42.632;23.198;2022-12-07T04:36:50;91829.44;;;4.95;100.00
34506;BME280;20748;42.632;23.198;2022-12-07T04:39:24;91820.88;;;5.00;100.00
34506;BME280;20748;42.632;23.198;2022-12-07T04:41:58;91828.88;;;5.03;100.00
34506;BME280;20748;42.632;23.198;2022-12-07T04:44:30;91828.28;;;5.17;100.00
34506;BME280;20748;42.632;23.198;2022-12-07T04:47:03;91817.88;;;5.27;100.00
34506;BME280;20748;42.632;23.198;2022-12-07T04:49:35;91819.13;;;5.35;100.00
34506;BME280;20748;42.632;23.198;2022-12-07T04:52:08;91823.97;;;5.47;100.00
34506;BME280;20748;42.632;23.198;2022-12-07T04:54:41;91818.19;;;5.55;100.00
34506;BME280;20748;42.632;23.198;2022-12-07T04:57:13;91819.66;;;5.67;100.00
34506;BME280;20748;42.632;23.198;2022-12-07T04:59:45;91820.38;;;5.72;100.00
34506;BME280;20748;42.632;23.198;2022-12-07T05:02:18;91819.84;;;5.75;100.00
34506;BME280;20748;42.632;23.198;2022-12-07T05:04:50;91813.63;;;5.76;100.00
34506;BME280;20748;42.632;23.198;2022-12-07T05:07:23;91811.31;;;5.75;100.00
34506;BME280;20748;42.632;23.198;2022-12-07T05:09:56;91823.00;;;5.67;100.00
34506;BME280;20748;42.632;23.198;2022-12-07T05:12:28;91828.78;;;5.59;100.00
34506;BME280;20748;42.632;23.198;2022-12-07T05:15:00;91833.72;;;5.20;100.00
34506;BME280;20748;42.632;23.198;2022-12-07T05:17:33;91831.16;;;4.60;100.00
34506;BME280;20748;42.632;23.198;2022-12-07T05:20:06;91827.06;;;4.43;100.00
34506;BME280;20748;42.632;23.198;2022-12-07T05:22:40;91838.44;;;4.47;100.00
34506;BME280;20748;42.632;23.198;2022-12-07T05:25:12;91833.31;;;4.26;100.00
34506;BME280;20748;42.632;23.198;2022-12-07T05:27:45;91830.47;;;4.28;100.00
34506;BME280;20748;42.632;23.198;2022-12-07T05:30:17;91827.59;;;4.40;100.00
34506;BME280;20748;42.632;23.198;2022-12-07T05:32:49;91837.53;;;4.78;100.00
34506;BME280;20748;42.632;23.198;2022-12-07T05:35:22;91836.13;;;5.01;100.00
34506;BME280;20748;42.632;23.198;2022-12-07T05:37:55;91828.78;;;5.24;100.00
34506;BME280;20748;42.632;23.198;2022-12-07T05:40:28;91827.66;;;5.35;100.00
34506;BME280;20748;42.632;23.198;2022-12-07T05:43:01;91825.22;;;5.49;100.00
34506;BME280;20748;42.632;23.198;2022-12-07T05:45:36;91818.41;;;5.59;100.00
34506;BME280;20748;42.632;23.198;2022-12-07T05:48:08;91820.41;;;5.67;100.00
34506;BME280;20748;42.632;23.198;2022-12-07T05:50:41;91822.69;;;5.74;100.00
34506;BME280;20748;42.632;23.198;2022-12-07T05:53:14;91816.66;;;5.84;100.00
34506;BME280;20748;42.632;23.198;2022-12-07T05:55:54;91822.31;;;5.91;100.00
34506;BME280;20748;42.632;23.198;2022-12-07T05:58:26;91821.56;;;5.85;100.00
34506;BME280;20748;42.632;23.198;2022-12-07T06:01:16;91820.75;;;5.90;100.00
34506;BME280;20748;42.632;23.198;2022-12-07T06:03:49;91818.13;;;5.95;100.00
34506;BME280;20748;42.632;23.198;2022-12-07T06:06:21;91817.38;;;5.95;100.00
34506;BME280;20748;42.632;23.198;2022-12-07T06:08:54;91821.19;;;6.02;100.00
34506;BME280;20748;42.632;23.198;2022-12-07T06:11:27;91828.31;;;6.16;100.00
34506;BME280;20748;42.632;23.198;2022-12-07T06:14:17;91816.66;;;6.18;100.00
34506;BME280;20748;42.632;23.198;2022-12-07T06:16:49;91820.16;;;6.28;100.00
34506;BME280;20748;42.632;23.198;2022-12-07T06:19:22;91823.53;;;6.28;100.00
34506;BME280;20748;42.632;23.198;2022-12-07T06:21:55;91824.81;;;6.31;100.00
34506;BME280;20748;42.632;23.198;2022-12-07T06:24:28;91818.94;;;6.20;100.00
34506;BME280;20748;42.632;23.198;2022-12-07T06:27:00;91823.53;;;6.28;100.00
34506;BME280;20748;42.632;23.198;2022-12-07T06:29:32;91825.50;;;6.37;100.00
34506;BME280;20748;42.632;23.198;2022-12-07T06:32:05;91831.47;;;6.37;100.00
34506;BME280;20748;42.632;23.198;2022-12-07T06:34:38;91836.88;;;6.41;100.00
34506;BME280;20748;42.632;23.198;2022-12-07T06:37:10;91825.63;;;6.51;100.00
34506;BME280;20748;42.632;23.198;2022-12-07T06:39:43;91832.66;;;6.50;100.00
34506;BME280;20748;42.632;23.198;2022-12-07T06:42:16;91836.47;;;6.53;100.00
34506;BME280;20748;42.632;23.198;2022-12-07T06:44:49;91836.16;;;6.60;100.00
34506;BME280;20748;42.632;23.198;2022-12-07T06:47:21;91839.41;;;6.70;100.00
34506;BME280;20748;42.632;23.198;2022-12-07T06:50:12;91834.16;;;6.76;100.00
34506;BME280;20748;42.632;23.198;2022-12-07T06:52:44;91842.66;;;6.81;100.00
34506;BME280;20748;42.632;23.198;2022-12-07T06:55:17;91839.78;;;6.83;100.00
34506;BME280;20748;42.632;23.198;2022-12-07T06:57:50;91844.63;;;6.90;100.00
34506;BME280;20748;42.632;23.198;2022-12-07T07:00:22;91843.28;;;6.92;100.00
34506;BME280;20748;42.632;23.198;2022-12-07T07:02:55;91844.63;;;6.90;100.00
34506;BME280;20748;42.632;23.198;2022-12-07T07:05:27;91843.28;;;6.49;100.00
34506;BME280;20748;42.632;23.198;2022-12-07T07:08:00;91840.91;;;6.52;100.00
34506;BME280;20748;42.632;23.198;2022-12-07T07:10:53;91838.81;;;6.30;100.00
34506;BME280;20748;42.632;23.198;2022-12-07T07:13:25;91832.84;;;6.29;100.00
34506;BME280;20748;42.632;23.198;2022-12-07T07:15:58;91839.78;;;6.34;100.00
34506;BME280;20748;42.632;23.198;2022-12-07T07:18:30;91835.78;;;6.47;100.00
34506;BME280;20748;42.632;23.198;2022-12-07T07:21:03;91840.53;;;6.40;100.00
34506;BME280;20748;42.632;23.198;2022-12-07T07:23:36;91845.84;;;6.24;100.00
34506;BME280;20748;42.632;23.198;2022-12-07T07:26:09;91847.69;;;6.24;100.00
34506;BME280;20748;42.632;23.198;2022-12-07T07:28:41;91841.94;;;6.27;100.00
34506;BME280;20748;42.632;23.198;2022-12-07T07:31:13;91845.47;;;6.12;100.00
34506;BME280;20748;42.632;23.198;2022-12-07T07:33:46;91842.31;;;5.50;100.00
34506;BME280;20748;42.632;23.198;2022-12-07T07:36:18;91845.00;;;5.30;100.00
34506;BME280;20748;42.632;23.198;2022-12-07T07:38:51;91846.25;;;5.37;100.00
34506;BME280;20748;42.632;23.198;2022-12-07T07:41:24;91845.22;;;5.38;100.00
34506;BME280;20748;42.632;23.198;2022-12-07T07:43:56;91849.97;;;5.26;100.00
34506;BME280;20748;42.632;23.198;2022-12-07T07:46:29;91849.06;;;5.46;100.00
34506;BME280;20748;42.632;23.198;2022-12-07T07:49:01;91842.19;;;5.66;100.00
34506;BME280;20748;42.632;23.198;2022-12-07T07:51:34;91853.72;;;5.79;100.00
34506;BME280;20748;42.632;23.198;2022-12-07T07:54:06;91848.16;;;5.96;100.00
34506;BME280;20748;42.632;23.198;2022-12-07T07:56:39;91844.41;;;6.13;100.00
34506;BME280;20748;42.632;23.198;2022-12-07T07:59:11;91852.75;;;6.34;100.00
34506;BME280;20748;42.632;23.198;2022-12-07T08:01:44;91847.41;;;6.50;100.00
34506;BME280;20748;42.632;23.198;2022-12-07T08:04:16;91848.28;;;6.64;100.00
34506;BME280;20748;42.632;23.198;2022-12-07T08:06:49;91847.84;;;6.81;100.00
34506;BME280;20748;42.632;23.198;2022-12-07T08:09:21;91847.31;;;7.04;100.00
34506;BME280;20748;42.632;23.198;2022-12-07T08:11:54;91851.09;;;7.11;100.00
34506;BME280;20748;42.632;23.198;2022-12-07T08:14:27;91839.41;;;7.14;100.00
34506;BME280;20748;42.632;23.198;2022-12-07T08:17:00;91846.19;;;7.29;100.00
34506;BME280;20748;42.632;23.198;2022-12-07T08:19:33;91843.31;;;7.50;100.00
34506;BME280;20748;42.632;23.198;2022-12-07T08:22:06;91843.09;;;7.65;100.00
34506;BME280;20748;42.632;23.198;2022-12-07T08:24:38;91846.78;;;7.78;100.00
34506;BME280;20748;42.632;23.198;2022-12-07T08:27:11;91850.56;;;7.86;100.00
34506;BME280;20748;42.632;23.198;2022-12-07T08:29:44;91846.28;;;8.10;100.00
34506;BME280;20748;42.632;23.198;2022-12-07T08:32:16;91846.78;;;8.26;100.00
34506;BME280;20748;42.632;23.198;2022-12-07T08:34:48;91849.41;;;8.40;100.00
34506;BME280;20748;42.632;23.198;2022-12-07T08:37:21;91844.78;;;8.51;100.00
34506;BME280;20748;42.632;23.198;2022-12-07T08:39:54;91846.78;;;8.59;100.00
34506;BME280;20748;42.632;23.198;2022-12-07T08:42:27;91842.13;;;8.70;100.00
34506;BME280;20748;42.632;23.198;2022-12-07T08:45:01;91838.28;;;8.81;100.00
34506;BME280;20748;42.632;23.198;2022-12-07T08:47:34;91852.06;;;8.82;100.00
34506;BME280;20748;42.632;23.198;2022-12-07T08:50:08;91847.78;;;9.00;100.00
34506;BME280;20748;42.632;23.198;2022-12-07T08:52:42;91843.72;;;9.22;100.00
34506;BME280;20748;42.632;23.198;2022-12-07T08:55:14;91844.25;;;9.33;100.00
34506;BME280;20748;42.632;23.198;2022-12-07T08:57:48;91847.91;;;9.46;100.00
34506;BME280;20748;42.632;23.198;2022-12-07T09:00:20;91831.84;;;9.66;100.00
34506;BME280;20748;42.632;23.198;2022-12-07T09:02:53;91833.72;;;9.75;100.00
34506;BME280;20748;42.632;23.198;2022-12-07T09:05:26;91830.28;;;9.88;99.47
34506;BME280;20748;42.632;23.198;2022-12-07T09:08:00;91823.69;;;9.91;97.83
34506;BME280;20748;42.632;23.198;2022-12-07T09:10:33;91824.56;;;10.09;97.78
34506;BME280;20748;42.632;23.198;2022-12-07T09:13:06;91829.31;;;10.07;98.55
34506;BME280;20748;42.632;23.198;2022-12-07T09:15:39;91819.22;;;9.83;98.12
34506;BME280;20748;42.632;23.198;2022-12-07T09:18:11;91825.97;;;9.84;95.98
34506;BME280;20748;42.632;23.198;2022-12-07T09:20:44;91822.56;;;9.83;96.39
34506;BME280;20748;42.632;23.198;2022-12-07T09:23:16;91831.09;;;9.75;96.81
34506;BME280;20748;42.632;23.198;2022-12-07T09:25:49;91824.66;;;9.72;98.40
34506;BME280;20748;42.632;23.198;2022-12-07T09:28:22;91818.50;;;9.68;97.01
34506;BME280;20748;42.632;23.198;2022-12-07T09:30:54;91818.63;;;9.40;93.71
34506;BME280;20748;42.632;23.198;2022-12-07T09:33:46;91812.91;;;9.38;95.23
34506;BME280;20748;42.632;23.198;2022-12-07T09:36:19;91816.53;;;9.51;97.28
34506;BME280;20748;42.632;23.198;2022-12-07T09:38:51;91800.63;;;9.75;97.80
34506;BME280;20748;42.632;23.198;2022-12-07T09:41:25;91804.09;;;9.93;98.76
34506;BME280;20748;42.632;23.198;2022-12-07T09:44:04;91784.91;;;9.89;96.09
34506;BME280;20748;42.632;23.198;2022-12-07T09:46:39;91798.22;;;10.11;97.52
34506;BME280;20748;42.632;23.198;2022-12-07T09:49:16;91780.63;;;10.25;96.82
34506;BME280;20748;42.632;23.198;2022-12-07T09:52:00;91781.78;;;10.42;93.72
34506;BME280;20748;42.632;23.198;2022-12-07T09:54:35;91780.66;;;10.74;94.95
34506;BME280;20748;42.632;23.198;2022-12-07T09:57:09;91786.06;;;10.96;90.85
34506;BME280;20748;42.632;23.198;2022-12-07T09:59:44;91784.56;;;11.21;89.28
34506;BME280;20748;42.632;23.198;2022-12-07T10:02:25;91782.25;;;11.46;86.67
34506;BME280;20748;42.632;23.198;2022-12-07T10:05:04;91777.97;;;11.50;87.18
34506;BME280;20748;42.632;23.198;2022-12-07T10:07:37;91775.34;;;11.24;84.56
34506;BME280;20748;42.632;23.198;2022-12-07T10:10:15;91781.81;;;11.26;86.50
34506;BME280;20748;42.632;23.198;2022-12-07T10:12:57;91771.97;;;11.50;84.71
34506;BME280;20748;42.632;23.198;2022-12-07T10:15:49;91774.44;;;11.46;83.07
34506;BME280;20748;42.632;23.198;2022-12-07T10:18:29;91771.38;;;11.44;82.80
34506;BME280;20748;42.632;23.198;2022-12-07T10:21:10;91764.59;;;11.25;84.20
34506;BME280;20748;42.632;23.198;2022-12-07T10:24:00;91758.59;;;11.16;86.13
34506;BME280;20748;42.632;23.198;2022-12-07T10:26:33;91759.66;;;10.80;88.19
34506;BME280;20748;42.632;23.198;2022-12-07T10:29:15;91749.81;;;10.77;87.17
34506;BME280;20748;42.632;23.198;2022-12-07T10:31:52;91755.16;;;10.63;89.57
34506;BME280;20748;42.632;23.198;2022-12-07T10:34:29;91744.72;;;10.63;87.99
34506;BME280;20748;42.632;23.198;2022-12-07T10:37:16;91739.16;;;10.46;88.27
34506;BME280;20748;42.632;23.198;2022-12-07T10:39:50;91744.75;;;10.31;88.58
34506;BME280;20748;42.632;23.198;2022-12-07T10:42:25;91740.25;;;10.45;90.17
34506;BME280;20748;42.632;23.198;2022-12-07T10:45:07;91739.03;;;10.60;89.12
34506;BME280;20748;42.632;23.198;2022-12-07T10:47:45;91739.34;;;10.68;89.64
34506;BME280;20748;42.632;23.198;2022-12-07T10:50:52;91735.03;;;10.54;88.14
34506;BME280;20748;42.632;23.198;2022-12-07T10:53:35;91731.25;;;10.29;88.22
34506;BME280;20748;42.632;23.198;2022-12-07T10:56:39;91731.19;;;10.52;88.49
34506;BME280;20748;42.632;23.198;2022-12-07T10:59:39;91713.09;;;10.55;88.83
34506;BME280;20748;42.632;23.198;2022-12-07T11:02:24;91713.19;;;10.41;87.78
34506;BME280;20748;42.632;23.198;2022-12-07T11:05:06;91706.91;;;10.42;89.29
34506;BME280;20748;42.632;23.198;2022-12-07T11:07:54;91706.22;;;10.68;88.53
34506;BME280;20748;42.632;23.198;2022-12-07T11:10:39;91711.91;;;10.79;86.71
34506;BME280;20748;42.632;23.198;2022-12-07T11:13:24;91711.31;;;10.82;84.50
34506;BME280;20748;42.632;23.198;2022-12-07T11:16:19;91698.25;;;10.82;84.93
34506;BME280;20748;42.632;23.198;2022-12-07T11:19:05;91698.25;;;11.00;84.76
34506;BME280;20748;42.632;23.198;2022-12-07T11:21:44;91697.78;;;11.07;82.50
34506;BME280;20748;42.632;23.198;2022-12-07T11:24:22;91695.00;;;11.12;80.33
34506;BME280;20748;42.632;23.198;2022-12-07T11:27:09;91690.84;;;11.37;79.00
34506;BME280;20748;42.632;23.198;2022-12-07T11:29:51;91688.25;;;11.11;79.22
34506;BME280;20748;42.632;23.198;2022-12-07T11:32:42;91689.94;;;11.15;76.80
34506;BME280;20748;42.632;23.198;2022-12-07T11:35:22;91682.44;;;11.05;77.36
34506;BME280;20748;42.632;23.198;2022-12-07T11:38:00;91684.13;;;11.10;78.53
34506;BME280;20748;42.632;23.198;2022-12-07T11:40:35;91688.13;;;10.98;78.16
34506;BME280;20748;42.632;23.198;2022-12-07T11:43:15;91683.19;;;11.06;78.31
34506;BME280;20748;42.632;23.198;2022-12-07T11:45:56;91681.50;;;11.19;77.15
34506;BME280;20748;42.632;23.198;2022-12-07T11:48:33;91686.88;;;11.13;78.60
34506;BME280;20748;42.632;23.198;2022-12-07T11:51:10;91688.84;;;11.17;78.49
34506;BME280;20748;42.632;23.198;2022-12-07T11:53:46;91679.34;;;10.94;78.97
34506;BME280;20748;42.632;23.198;2022-12-07T11:56:23;91672.75;;;10.97;80.23
34506;BME280;20748;42.632;23.198;2022-12-07T11:59:01;91672.00;;;10.70;82.54
34506;BME280;20748;42.632;23.198;2022-12-07T12:01:46;91676.28;;;10.92;81.30
34506;BME280;20748;42.632;23.198;2022-12-07T12:04:29;91673.22;;;10.55;83.97
34506;BME280;20748;42.632;23.198;2022-12-07T12:07:06;91669.69;;;10.68;83.23
34506;BME280;20748;42.632;23.198;2022-12-07T12:10:02;91674.28;;;10.63;83.87
34506;BME280;20748;42.632;23.198;2022-12-07T12:12:54;91659.53;;;10.49;84.73
34506;BME280;20748;42.632;23.198;2022-12-07T12:16:04;91661.69;;;10.47;86.26
34506;BME280;20748;42.632;23.198;2022-12-07T12:21:35;91657.78;;;10.27;88.26
34506;BME280;20748;42.632;23.198;2022-12-07T12:24:11;91648.84;;;10.10;88.78
34506;BME280;20748;42.632;23.198;2022-12-07T12:26:50;91640.03;;;9.88;88.93
34506;BME280;20748;42.632;23.198;2022-12-07T12:29:28;91633.72;;;9.80;91.71
34506;BME280;20748;42.632;23.198;2022-12-07T12:32:07;91634.69;;;9.93;90.95
34506;BME280;20748;42.632;23.198;2022-12-07T12:34:59;91635.19;;;10.13;90.11
34506;BME280;20748;42.632;23.198;2022-12-07T12:37:45;91636.22;;;10.44;89.45
34506;BME280;20748;42.632;23.198;2022-12-07T12:40:42;91629.63;;;10.64;88.25
34506;BME280;20748;42.632;23.198;2022-12-07T12:43:45;91631.78;;;10.88;83.99
34506;BME280;20748;42.632;23.198;2022-12-07T12:46:49;91615.50;;;10.83;82.39
34506;BME280;20748;42.632;23.198;2022-12-07T12:49:40;91630.25;;;10.79;82.18
34506;BME280;20748;42.632;23.198;2022-12-07T12:52:55;91630.25;;;10.79;80.81
34506;BME280;20748;42.632;23.198;2022-12-07T12:55:54;91635.78;;;10.59;82.23
34506;BME280;20748;42.632;23.198;2022-12-07T12:58:43;91640.06;;;10.73;83.74
34506;BME280;20748;42.632;23.198;2022-12-07T13:01:45;91633.63;;;10.79;82.77
34506;BME280;20748;42.632;23.198;2022-12-07T13:04:28;91641.28;;;10.84;82.39
34506;BME280;20748;42.632;23.198;2022-12-07T13:07:02;91635.91;;;10.81;83.73
34506;BME280;20748;42.632;23.198;2022-12-07T13:09:35;91643.13;;;10.93;82.29
34506;BME280;20748;42.632;23.198;2022-12-07T13:12:13;91636.69;;;10.81;83.29
34506;BME280;20748;42.632;23.198;2022-12-07T13:14:57;91640.22;;;10.85;84.10
34506;BME280;20748;42.632;23.198;2022-12-07T13:17:56;91646.22;;;10.86;83.08
34506;BME280;20748;42.632;23.198;2022-12-07T13:20:52;91640.06;;;10.64;84.41
34506;BME280;20748;42.632;23.198;2022-12-07T13:23:28;91641.28;;;10.84;83.87
34506;BME280;20748;42.632;23.198;2022-12-07T13:26:12;91636.69;;;10.64;84.73
34506;BME280;20748;42.632;23.198;2022-12-07T13:28:51;91634.69;;;10.69;82.98
34506;BME280;20748;42.632;23.198;2022-12-07T13:31:34;91654.63;;;10.74;83.07
34506;BME280;20748;42.632;23.198;2022-12-07T13:34:31;91649.91;;;10.76;81.93
34506;BME280;20748;42.632;23.198;2022-12-07T13:37:12;91639.13;;;10.86;83.25
34506;BME280;20748;42.632;23.198;2022-12-07T13:39:47;91632.53;;;10.98;82.44
34506;BME280;20748;42.632;23.198;2022-12-07T13:42:25;91642.06;;;10.50;82.33
34506;BME280;20748;42.632;23.198;2022-12-07T13:44:59;91634.53;;;10.57;81.83
34506;BME280;20748;42.632;23.198;2022-12-07T13:47:36;91632.53;;;10.54;82.13